createdAt,value
2023-05-14T00:00:36.924Z,10.33
2023-05-14T00:03:04.357Z,10.26
2023-05-14T00:05:31.306Z,10.26
2023-05-14T00:07:58.143Z,10.12
2023-05-14T00:10:25.369Z,10.16
2023-05-14T00:12:52.300Z,10.07
2023-05-14T00:15:19.401Z,10.03
2023-05-14T00:17:46.594Z,9.95
2023-05-14T00:20:13.557Z,9.87
2023-05-14T00:22:40.706Z,9.87
2023-05-14T00:25:09.029Z,9.95
2023-05-14T00:27:37.986Z,9.86
2023-05-14T00:30:07.067Z,9.72
2023-05-14T00:32:34.341Z,9.88
2023-05-14T00:35:03.267Z,9.95
2023-05-14T00:37:30.190Z,9.82
2023-05-14T00:39:57.238Z,9.65
2023-05-14T00:42:24.037Z,9.68
2023-05-14T00:44:50.820Z,9.60
2023-05-14T00:47:17.593Z,9.49
2023-05-14T00:49:44.491Z,9.43
2023-05-14T00:52:12.055Z,9.53
2023-05-14T00:54:39.447Z,9.56
2023-05-14T00:57:07.005Z,9.50
2023-05-14T00:59:33.916Z,9.37
2023-05-14T01:02:00.815Z,9.33
2023-05-14T01:04:27.808Z,9.32
2023-05-14T01:07:30.720Z,9.28
2023-05-14T01:10:16.149Z,9.35
2023-05-14T01:12:45.761Z,9.25
2023-05-14T01:15:26.722Z,9.25
2023-05-14T01:18:14.627Z,9.11
2023-05-14T01:20:41.372Z,9.15
2023-05-14T01:23:08.150Z,9.15
2023-05-14T01:25:35.696Z,9.01
2023-05-14T01:28:11.600Z,8.98
2023-05-14T01:31:02.418Z,8.98
2023-05-14T01:33:32.658Z,9.09
2023-05-14T01:36:00.081Z,8.97
2023-05-14T01:38:31.039Z,8.95
2023-05-14T01:40:58.376Z,8.74
2023-05-14T01:43:25.559Z,8.71
2023-05-14T01:45:52.373Z,8.77
2023-05-14T01:48:19.164Z,8.74
2023-05-14T01:50:46.030Z,8.57
2023-05-14T01:53:12.908Z,8.58
2023-05-14T01:55:39.704Z,8.66
2023-05-14T01:58:06.443Z,8.73
2023-05-14T02:00:33.666Z,8.57
2023-05-14T02:03:00.384Z,8.64
2023-05-14T02:05:27.161Z,8.63
2023-05-14T02:07:54.054Z,8.51
2023-05-14T02:10:21.128Z,8.46
2023-05-14T02:12:48.048Z,8.61
2023-05-14T02:15:14.768Z,8.58
2023-05-14T02:17:41.658Z,8.57
2023-05-14T02:20:10.535Z,8.52
2023-05-14T02:22:37.653Z,8.49
2023-05-14T02:25:04.701Z,8.47
2023-05-14T02:27:31.910Z,8.42
2023-05-14T02:30:01.021Z,8.38
2023-05-14T02:32:28.480Z,8.28
2023-05-14T02:34:55.483Z,8.25
2023-05-14T02:37:22.366Z,8.15
2023-05-14T02:39:49.738Z,8.15
2023-05-14T02:42:16.480Z,8.21
2023-05-14T02:44:43.253Z,8.24
2023-05-14T02:47:10.079Z,8.16
2023-05-14T02:49:36.926Z,8.22
2023-05-14T02:52:03.835Z,8.12
2023-05-14T02:54:30.582Z,8.11
2023-05-14T02:56:57.357Z,8.12
2023-05-14T02:59:25.087Z,8.39
2023-05-14T03:01:52.581Z,8.30
2023-05-14T03:04:19.917Z,8.33
2023-05-14T03:06:46.719Z,8.37
2023-05-14T03:09:13.577Z,8.30
2023-05-14T03:11:40.509Z,8.29
2023-05-14T03:14:07.240Z,8.30
2023-05-14T03:16:34.017Z,8.31
2023-05-14T03:19:00.855Z,8.34
2023-05-14T03:21:27.805Z,8.41
2023-05-14T03:23:54.583Z,8.52
2023-05-14T03:26:21.848Z,8.52
2023-05-14T03:28:49.051Z,8.53
2023-05-14T03:31:16.028Z,8.58
2023-05-14T03:33:42.915Z,8.64
2023-05-14T03:36:09.833Z,8.75
2023-05-14T03:38:37.113Z,8.76
2023-05-14T03:41:03.955Z,8.61
2023-05-14T03:43:30.720Z,8.63
2023-05-14T03:45:57.492Z,8.71
2023-05-14T03:48:24.259Z,8.77
2023-05-14T03:50:51.679Z,8.91
2023-05-14T03:53:18.419Z,8.92
2023-05-14T03:55:45.151Z,8.96
2023-05-14T03:58:14.504Z,9.09
2023-05-14T04:00:44.612Z,9.12
2023-05-14T04:03:12.142Z,9.20
2023-05-14T04:05:39.029Z,9.14
2023-05-14T04:08:06.111Z,9.05
2023-05-14T04:10:32.919Z,9.05
2023-05-14T04:12:59.681Z,9.06
2023-05-14T04:15:26.746Z,9.09
2023-05-14T04:17:53.583Z,9.12
2023-05-14T04:20:20.410Z,9.19
2023-05-14T04:22:47.184Z,9.32
2023-05-14T04:25:14.006Z,9.37
2023-05-14T04:27:40.851Z,9.41
2023-05-14T04:30:08.720Z,9.41
2023-05-14T04:32:35.713Z,9.35
2023-05-14T04:35:02.918Z,9.43
2023-05-14T04:37:29.681Z,9.45
2023-05-14T04:39:56.476Z,9.69
2023-05-14T04:42:23.278Z,9.87
2023-05-14T04:44:49.992Z,9.90
2023-05-14T04:47:16.981Z,9.84
2023-05-14T04:49:43.782Z,9.99
2023-05-14T04:52:10.804Z,9.93
2023-05-14T04:54:37.592Z,9.98
2023-05-14T04:57:04.601Z,10.12
2023-05-14T04:59:31.569Z,10.12
2023-05-14T05:01:58.448Z,10.07
2023-05-14T05:04:26.595Z,9.98
2023-05-14T05:06:53.419Z,9.90
2023-05-14T05:09:20.161Z,10.03
2023-05-14T05:11:46.918Z,10.09
2023-05-14T05:14:13.758Z,10.18
2023-05-14T05:16:40.644Z,10.31
2023-05-14T05:19:07.450Z,10.27
2023-05-14T05:21:34.577Z,10.20
2023-05-14T05:24:01.324Z,10.27
2023-05-14T05:26:28.316Z,10.50
2023-05-14T05:28:55.069Z,10.52
2023-05-14T05:31:21.867Z,10.71
2023-05-14T05:33:48.740Z,10.72
2023-05-14T05:36:15.505Z,10.66
2023-05-14T05:38:42.474Z,10.77
2023-05-14T05:41:09.245Z,10.94
2023-05-14T05:43:36.013Z,11.01
2023-05-14T05:46:02.978Z,11.17
2023-05-14T05:48:29.813Z,11.33
2023-05-14T05:50:56.657Z,11.46
2023-05-14T05:53:23.430Z,11.54
2023-05-14T05:55:51.945Z,11.52
2023-05-14T05:58:19.677Z,11.40
2023-05-14T06:00:47.210Z,11.60
2023-05-14T06:03:14.309Z,11.53
2023-05-14T06:05:41.417Z,11.29
2023-05-14T06:08:08.284Z,11.72
2023-05-14T06:10:36.475Z,11.73
2023-05-14T06:13:03.423Z,11.74
2023-05-14T06:15:30.242Z,11.94
2023-05-14T06:17:57.149Z,11.93
2023-05-14T06:20:24.213Z,12.00
2023-05-14T06:22:51.246Z,12.25
2023-05-14T06:25:18.249Z,12.12
2023-05-14T06:27:45.075Z,12.28
2023-05-14T06:30:12.661Z,12.56
2023-05-14T06:32:39.522Z,12.21
2023-05-14T06:35:06.934Z,12.55
2023-05-14T06:37:33.740Z,12.38
2023-05-14T06:40:01.876Z,12.49
2023-05-14T06:42:28.650Z,12.71
2023-05-14T06:44:56.205Z,13.13
2023-05-14T06:47:23.149Z,12.80
2023-05-14T06:49:50.199Z,13.05
2023-05-14T06:52:17.220Z,13.08
2023-05-14T06:54:43.993Z,13.34
2023-05-14T06:57:10.810Z,13.40
2023-05-14T06:59:37.532Z,13.53
2023-05-14T07:02:04.388Z,13.42
2023-05-14T07:04:31.200Z,13.89
2023-05-14T07:06:58.024Z,14.04
2023-05-14T07:09:24.907Z,14.45
2023-05-14T07:11:51.672Z,13.96
2023-05-14T07:14:18.447Z,13.77
2023-05-14T07:16:47.174Z,14.03
2023-05-14T07:19:14.200Z,14.32
2023-05-14T07:21:41.115Z,14.50
2023-05-14T07:24:08.032Z,14.52
2023-05-14T07:26:35.021Z,14.30
2023-05-14T07:29:01.842Z,14.73
2023-05-14T07:31:28.578Z,15.28
2023-05-14T07:33:55.617Z,14.75
2023-05-14T07:36:23.422Z,15.19
2023-05-14T07:38:50.218Z,15.08
2023-05-14T07:41:17.023Z,15.82
2023-05-14T07:43:43.957Z,15.29
2023-05-14T07:46:10.881Z,16.11
2023-05-14T07:48:37.748Z,15.82
2023-05-14T07:51:04.569Z,15.73
2023-05-14T07:53:31.633Z,15.46
2023-05-14T07:56:00.227Z,15.97
2023-05-14T07:58:28.299Z,16.08
2023-05-14T08:00:55.255Z,16.35
2023-05-14T08:03:22.296Z,16.13
2023-05-14T08:05:49.186Z,16.73
2023-05-14T08:08:16.452Z,15.54
2023-05-14T08:10:43.250Z,15.95
2023-05-14T08:13:10.031Z,16.11
2023-05-14T08:15:37.363Z,15.58
2023-05-14T08:18:04.175Z,15.78
2023-05-14T08:20:31.368Z,15.45
2023-05-14T08:22:58.629Z,16.23
2023-05-14T08:25:25.549Z,16.04
2023-05-14T08:27:53.907Z,16.46
2023-05-14T08:30:22.334Z,16.25
2023-05-14T08:32:49.503Z,16.21
2023-05-14T08:35:17.631Z,16.16
2023-05-14T08:37:44.507Z,16.20
2023-05-14T08:40:12.197Z,16.71
2023-05-14T08:42:43.459Z,16.12
2023-05-14T08:45:21.358Z,16.20
2023-05-14T08:47:53.180Z,16.46
2023-05-14T08:50:22.786Z,16.86
2023-05-14T08:52:50.679Z,16.65
2023-05-14T08:55:17.416Z,16.80
2023-05-14T08:57:44.519Z,16.46
2023-05-14T09:00:12.178Z,16.52
2023-05-14T09:02:40.817Z,16.21
2023-05-14T09:05:09.520Z,16.18
2023-05-14T09:07:36.730Z,16.19
2023-05-14T09:10:04.229Z,15.96
2023-05-14T09:12:31.587Z,16.03
2023-05-14T09:14:59.135Z,15.40
2023-05-14T09:17:30.250Z,15.53
2023-05-14T09:19:57.122Z,15.79
2023-05-14T09:22:23.856Z,16.19
2023-05-14T09:25:05.448Z,16.26
2023-05-14T09:27:33.454Z,16.75
2023-05-14T09:30:11.493Z,16.64
2023-05-14T09:32:46.455Z,16.83
2023-05-14T09:35:20.989Z,16.76
2023-05-14T09:37:52.447Z,16.77
2023-05-14T09:40:21.236Z,16.21
2023-05-14T09:42:49.406Z,16.32
2023-05-14T09:45:16.912Z,15.92
2023-05-14T09:47:45.636Z,16.27
2023-05-14T09:50:12.812Z,16.53
2023-05-14T09:52:39.778Z,16.25
2023-05-14T09:55:07.285Z,16.38
2023-05-14T09:57:34.797Z,16.46
2023-05-14T10:00:01.622Z,16.00
2023-05-14T10:02:38.268Z,16.30
2023-05-14T10:05:07.221Z,16.41
2023-05-14T10:07:39.293Z,16.38
2023-05-14T10:10:09.804Z,16.32
2023-05-14T10:12:39.804Z,16.54
2023-05-14T10:15:23.980Z,16.43
2023-05-14T10:17:57.370Z,16.40
2023-05-14T10:20:25.508Z,16.41
2023-05-14T10:22:52.472Z,16.82
2023-05-14T10:25:19.478Z,16.90
2023-05-14T10:27:46.290Z,16.88
2023-05-14T10:30:13.502Z,17.22
2023-05-14T10:32:42.163Z,17.27
2023-05-14T10:35:23.055Z,17.26
2023-05-14T10:37:51.890Z,17.68
2023-05-14T10:40:19.595Z,17.65
2023-05-14T10:42:47.154Z,17.31
2023-05-14T10:45:15.830Z,17.00
2023-05-14T10:47:45.792Z,17.40
2023-05-14T10:50:15.296Z,17.27
2023-05-14T10:52:46.683Z,16.98
2023-05-14T10:55:15.533Z,17.32
2023-05-14T10:57:46.847Z,17.01
2023-05-14T11:00:15.065Z,17.07
2023-05-14T11:02:43.828Z,16.86
2023-05-14T11:05:17.506Z,16.84
2023-05-14T11:07:49.905Z,16.95
2023-05-14T11:10:18.691Z,17.77
2023-05-14T11:12:47.385Z,17.58
2023-05-14T11:15:22.045Z,18.07
2023-05-14T11:17:50.602Z,17.65
2023-05-14T11:20:18.195Z,18.03
2023-05-14T11:22:47.025Z,18.35
2023-05-14T11:25:15.157Z,18.35
2023-05-14T11:27:45.568Z,18.80
2023-05-14T11:30:22.098Z,19.15
2023-05-14T11:32:50.617Z,19.26
2023-05-14T11:35:18.284Z,19.55
2023-05-14T11:37:51.980Z,19.31
2023-05-14T11:40:19.022Z,19.11
2023-05-14T11:42:46.577Z,20.08
2023-05-14T11:45:14.658Z,19.31
2023-05-14T11:47:42.982Z,19.70
2023-05-14T11:50:10.246Z,20.50
2023-05-14T11:52:41.629Z,19.65
2023-05-14T11:55:14.390Z,19.57
2023-05-14T11:57:41.589Z,20.30
2023-05-14T12:00:09.592Z,20.65
2023-05-14T12:02:37.515Z,18.85
2023-05-14T12:05:07.458Z,20.09
2023-05-14T12:07:34.288Z,19.34
2023-05-14T12:10:03.944Z,19.65
2023-05-14T12:12:36.312Z,19.44
2023-05-14T12:15:11.556Z,19.56
2023-05-14T12:17:38.637Z,19.93
2023-05-14T12:20:10.672Z,19.60
2023-05-14T12:22:37.755Z,19.87
2023-05-14T12:25:05.264Z,19.33
2023-05-14T12:27:32.101Z,19.20
2023-05-14T12:32:41.242Z,20.82
2023-05-14T12:35:09.078Z,20.98
2023-05-14T12:37:37.625Z,21.25
2023-05-14T12:40:10.592Z,20.48
2023-05-14T12:42:37.944Z,20.21
2023-05-14T12:45:08.219Z,19.39
2023-05-14T12:47:35.403Z,19.88
2023-05-14T12:50:02.833Z,20.78
2023-05-14T12:54:59.435Z,22.62
2023-05-14T12:57:27.930Z,22.89
2023-05-14T12:59:55.447Z,22.35
2023-05-14T13:02:22.215Z,21.42
2023-05-14T13:04:49.032Z,22.78
2023-05-14T13:07:15.881Z,20.09
2023-05-14T13:09:43.026Z,20.57
2023-05-14T13:12:10.018Z,22.87
2023-05-14T13:14:36.878Z,21.88
2023-05-14T13:17:05.218Z,22.10
2023-05-14T13:19:32.053Z,20.31
2023-05-14T13:21:58.778Z,20.26
2023-05-14T13:24:25.554Z,20.20
2023-05-14T13:26:52.357Z,20.24
2023-05-14T13:29:19.093Z,20.11
2023-05-14T13:31:45.996Z,21.30
2023-05-14T13:34:13.343Z,21.22
2023-05-14T13:36:40.957Z,22.41
2023-05-14T13:39:07.777Z,22.31
2023-05-14T13:41:38.134Z,22.19
2023-05-14T13:44:05.365Z,22.02
2023-05-14T13:46:32.286Z,23.59
2023-05-14T13:48:59.076Z,23.30
2023-05-14T13:51:25.938Z,21.62
2023-05-14T13:56:19.726Z,22.33
2023-05-14T13:58:46.492Z,22.20
2023-05-14T14:01:13.273Z,23.59
2023-05-14T14:03:40.027Z,22.38
2023-05-14T14:06:06.949Z,23.04
2023-05-14T14:08:33.724Z,22.37
2023-05-14T14:11:00.560Z,23.21
2023-05-14T14:13:28.037Z,23.46
2023-05-14T14:15:54.890Z,22.64
2023-05-14T14:18:21.798Z,24.02
2023-05-14T14:20:48.651Z,24.21
2023-05-14T14:23:15.482Z,24.54
2023-05-14T14:25:42.271Z,23.26
2023-05-14T14:28:09.071Z,23.13
2023-05-14T14:30:35.918Z,23.18
2023-05-14T14:33:02.658Z,24.39
2023-05-14T14:35:29.488Z,24.66
2023-05-14T14:37:56.363Z,24.15
2023-05-14T14:40:24.161Z,23.53
2023-05-14T14:42:51.064Z,24.52
2023-05-14T14:45:18.270Z,23.66
2023-05-14T14:47:46.555Z,23.46
2023-05-14T14:50:13.940Z,23.76
2023-05-14T14:52:45.621Z,25.53
2023-05-14T14:55:12.824Z,24.94
2023-05-14T14:57:39.705Z,24.50
2023-05-14T15:00:07.981Z,22.88
2023-05-14T15:02:35.053Z,24.23
2023-05-14T15:05:02.273Z,22.70
2023-05-14T15:07:33.152Z,22.13
2023-05-14T15:09:59.944Z,21.84
2023-05-14T15:12:26.691Z,20.96
2023-05-14T15:14:53.449Z,23.26
2023-05-14T15:17:20.243Z,23.15
2023-05-14T15:19:47.814Z,23.30
2023-05-14T15:22:14.640Z,23.59
2023-05-14T15:24:41.349Z,23.69
2023-05-14T15:27:08.093Z,24.45
2023-05-14T15:29:34.902Z,22.67
2023-05-14T15:32:02.617Z,24.02
2023-05-14T15:34:29.589Z,23.39
2023-05-14T15:36:56.320Z,23.59
2023-05-14T15:39:23.232Z,22.68
2023-05-14T15:41:50.539Z,24.39
2023-05-14T15:44:17.379Z,25.28
2023-05-14T15:46:44.379Z,24.28
2023-05-14T15:49:11.559Z,23.09
2023-05-14T15:51:38.717Z,23.24
2023-05-14T15:54:05.797Z,21.70
2023-05-14T15:56:32.953Z,23.03
2023-05-14T15:59:00.078Z,23.48
2023-05-14T16:01:27.244Z,23.00
2023-05-14T16:03:54.679Z,24.38
2023-05-14T16:06:21.730Z,22.43
2023-05-14T16:08:49.792Z,21.84
2023-05-14T16:11:16.653Z,21.21
2023-05-14T16:13:43.854Z,20.99
2023-05-14T16:16:11.285Z,20.26
2023-05-14T16:18:39.297Z,20.20
2023-05-14T16:21:06.560Z,19.90
2023-05-14T16:23:33.635Z,20.36
2023-05-14T16:26:00.647Z,20.16
2023-05-14T16:28:27.458Z,20.17
2023-05-14T16:30:55.463Z,20.19
2023-05-14T16:33:22.415Z,20.34
2023-05-14T16:35:50.715Z,20.00
2023-05-14T16:38:19.472Z,20.13
2023-05-14T16:40:46.529Z,19.96
2023-05-14T16:43:13.409Z,19.98
2023-05-14T16:45:40.616Z,20.13
2023-05-14T16:48:07.738Z,19.70
2023-05-14T16:50:34.611Z,20.73
2023-05-14T16:53:01.527Z,20.41
2023-05-14T16:55:28.289Z,20.37
2023-05-14T16:57:55.184Z,20.59
2023-05-14T17:00:21.961Z,20.19
2023-05-14T17:02:50.147Z,19.64
2023-05-14T17:05:17.386Z,19.00
2023-05-14T17:07:44.240Z,19.05
2023-05-14T17:10:11.581Z,19.09
2023-05-14T17:12:38.427Z,18.89
2023-05-14T17:15:07.437Z,18.97
2023-05-14T17:17:35.335Z,18.70
2023-05-14T17:20:02.261Z,18.33
2023-05-14T17:22:29.152Z,18.28
2023-05-14T17:24:56.048Z,18.27
2023-05-14T17:27:22.861Z,18.53
2023-05-14T17:29:52.672Z,18.87
2023-05-14T17:32:19.511Z,18.80
2023-05-14T17:34:46.582Z,18.49
2023-05-14T17:37:13.381Z,18.41
2023-05-14T17:39:40.163Z,18.26
2023-05-14T17:42:07.248Z,17.99
2023-05-14T17:44:34.184Z,18.38
2023-05-14T17:47:01.181Z,19.84
2023-05-14T17:49:28.028Z,19.99
2023-05-14T17:51:54.755Z,18.64
2023-05-14T17:54:21.514Z,18.22
2023-05-14T17:56:51.483Z,18.05
2023-05-14T17:59:18.295Z,18.02
2023-05-14T18:01:45.206Z,17.67
2023-05-14T18:04:12.177Z,17.62
2023-05-14T18:06:39.205Z,17.46
2023-05-14T18:09:06.013Z,17.34
2023-05-14T18:11:34.394Z,17.40
2023-05-14T18:14:01.552Z,17.33
2023-05-14T18:16:29.999Z,17.18
2023-05-14T18:18:57.013Z,17.04
2023-05-14T18:21:24.190Z,17.05
2023-05-14T18:23:51.130Z,16.82
2023-05-14T18:26:18.003Z,16.74
2023-05-14T18:28:44.846Z,16.75
2023-05-14T18:31:11.725Z,16.64
2023-05-14T18:33:38.571Z,16.57
2023-05-14T18:36:06.094Z,16.56
2023-05-14T18:38:35.745Z,16.50
2023-05-14T18:41:02.738Z,16.57
2023-05-14T18:43:29.557Z,16.44
2023-05-14T18:45:56.452Z,16.42
2023-05-14T18:48:23.719Z,16.17
2023-05-14T18:50:50.459Z,16.09
2023-05-14T18:53:17.405Z,16.03
2023-05-14T18:55:44.966Z,16.02
2023-05-14T18:58:12.372Z,15.98
2023-05-14T19:00:39.247Z,15.95
2023-05-14T19:03:06.230Z,16.00
2023-05-14T19:05:33.114Z,15.96
2023-05-14T19:08:01.156Z,15.86
2023-05-14T19:10:28.053Z,15.81
2023-05-14T19:12:54.971Z,15.75
2023-05-14T19:15:21.925Z,15.70
2023-05-14T19:17:49.344Z,15.61
2023-05-14T19:20:16.302Z,15.62
2023-05-14T19:22:43.288Z,15.56
2023-05-14T19:25:11.411Z,15.50
2023-05-14T19:27:38.968Z,15.49
2023-05-14T19:30:06.551Z,15.39
2023-05-14T19:32:33.505Z,15.32
2023-05-14T19:35:00.274Z,15.24
2023-05-14T19:37:27.108Z,15.16
2023-05-14T19:39:53.913Z,15.08
2023-05-14T19:42:20.729Z,15.03
2023-05-14T19:44:47.540Z,14.99
2023-05-14T19:47:14.669Z,14.92
2023-05-14T19:49:41.622Z,14.88
2023-05-14T19:52:08.477Z,14.75
2023-05-14T19:54:35.211Z,14.73
2023-05-14T19:57:02.067Z,14.65
2023-05-14T19:59:30.027Z,14.66
2023-05-14T20:01:57.177Z,14.60
2023-05-14T20:04:26.263Z,14.56
2023-05-14T20:06:53.031Z,14.60
2023-05-14T20:09:20.358Z,14.61
2023-05-14T20:11:47.220Z,14.56
2023-05-14T20:14:14.444Z,14.54
2023-05-14T20:16:42.150Z,14.61
2023-05-14T20:19:09.329Z,14.56
2023-05-14T20:21:36.110Z,14.65
2023-05-14T20:24:03.107Z,14.57
2023-05-14T20:26:29.926Z,14.49
2023-05-14T20:28:56.695Z,14.52
2023-05-14T20:31:23.640Z,14.43
2023-05-14T20:33:50.886Z,14.44
2023-05-14T20:36:17.734Z,14.49
2023-05-14T20:38:44.856Z,14.36
2023-05-14T20:41:11.635Z,14.37
2023-05-14T20:43:38.409Z,14.31
2023-05-14T20:46:07.527Z,14.30
2023-05-14T20:48:34.408Z,14.19
2023-05-14T20:51:01.939Z,14.09
2023-05-14T20:53:29.069Z,14.02
2023-05-14T20:55:56.056Z,13.97
2023-05-14T20:58:22.963Z,13.99
2023-05-14T21:00:49.896Z,13.94
2023-05-14T21:03:16.906Z,13.86
2023-05-14T21:05:43.984Z,13.83
2023-05-14T21:08:11.691Z,13.78
2023-05-14T21:10:38.491Z,13.69
2023-05-14T21:13:05.256Z,13.66
2023-05-14T21:15:32.870Z,13.69
2023-05-14T21:17:59.889Z,13.55
2023-05-14T21:20:26.732Z,13.52
2023-05-14T21:22:53.503Z,13.45
2023-05-14T21:25:20.332Z,13.46
2023-05-14T21:27:47.207Z,13.41
2023-05-14T21:30:14.433Z,13.33
2023-05-14T21:32:41.326Z,13.33
2023-05-14T21:35:08.483Z,13.30
2023-05-14T21:37:35.251Z,13.24
2023-05-14T21:40:02.035Z,13.29
2023-05-14T21:42:28.880Z,13.32
2023-05-14T21:44:55.619Z,13.26
2023-05-14T21:47:22.522Z,13.21
2023-05-14T21:49:49.377Z,13.32
2023-05-14T21:52:16.559Z,13.25
2023-05-14T21:54:43.363Z,13.16
2023-05-14T21:57:10.130Z,13.20
2023-05-14T21:59:37.381Z,13.15
2023-05-14T22:02:07.411Z,13.17
2023-05-14T22:04:35.505Z,13.10
2023-05-14T22:07:02.403Z,13.04
2023-05-14T22:09:29.297Z,13.01
2023-05-14T22:11:57.302Z,12.98
2023-05-14T22:14:24.128Z,12.92
2023-05-14T22:16:51.079Z,12.88
2023-05-14T22:19:17.958Z,12.72
2023-05-14T22:21:44.825Z,12.75
2023-05-14T22:24:11.562Z,12.67
2023-05-14T22:26:38.261Z,12.58
2023-05-14T22:29:05.024Z,12.56
2023-05-14T22:31:31.812Z,12.51
2023-05-14T22:33:58.568Z,12.38
2023-05-14T22:36:25.483Z,12.35
2023-05-14T22:38:52.314Z,12.31
2023-05-14T22:41:19.136Z,12.25
2023-05-14T22:43:48.856Z,12.29
2023-05-14T22:46:16.217Z,12.10
2023-05-14T22:48:42.957Z,12.13
2023-05-14T22:51:09.708Z,11.96
2023-05-14T22:53:36.589Z,11.88
2023-05-14T22:56:03.423Z,11.85
2023-05-14T22:58:30.190Z,11.82
2023-05-14T23:00:57.282Z,11.78
2023-05-14T23:03:24.028Z,11.83
2023-05-14T23:05:52.310Z,11.86
2023-05-14T23:08:19.024Z,11.75
2023-05-14T23:10:45.816Z,11.79
2023-05-14T23:13:12.661Z,11.71
2023-05-14T23:15:39.603Z,11.75
2023-05-14T23:18:07.828Z,11.60
2023-05-14T23:20:34.762Z,11.62
2023-05-14T23:23:01.487Z,11.58
2023-05-14T23:25:28.292Z,11.56
2023-05-14T23:27:55.076Z,11.49
2023-05-14T23:30:22.168Z,11.48
2023-05-14T23:32:48.932Z,11.47
2023-05-14T23:35:16.030Z,11.50
2023-05-14T23:37:47.600Z,11.38
2023-05-14T23:40:14.494Z,11.32
2023-05-14T23:42:41.474Z,11.37
2023-05-14T23:45:08.805Z,11.33
2023-05-14T23:47:35.805Z,11.15
2023-05-14T23:50:03.156Z,11.10
2023-05-14T23:52:29.976Z,11.06
2023-05-14T23:54:56.699Z,11.07
2023-05-14T23:57:23.474Z,11.08
2023-05-14T23:59:50.217Z,11.05
